Time;durP1;ratioP1;P1;durP2;ratioP2;P2;SDS_P1;SDS_P2;PMS_P1;PMS_P2;Temp;Humidity;BMP_temperature;BMP_pressure;BME280_temperature;BME280_humidity;BME280_pressure;Samples;Min_cycle;Max_cycle;Signal;HPM_P1;HPM_P2
2024/02/25 00:01:02;;;;;;;23.83;22.52;;;3.90;99.90;;;;;;12491772;28;20053;-36
2024/02/25 00:07:04;;;;;;;24.20;22.95;;;3.80;99.90;;;;;;12505641;28;20106;-36
2024/02/25 00:13:05;;;;;;;23.67;22.48;;;3.80;99.90;;;;;;12532734;28;20045;-36
2024/02/25 00:19:07;;;;;;;22.48;21.27;;;3.80;99.90;;;;;;12509167;28;20510;-36
2024/02/25 00:25:10;;;;;;;22.17;21.08;;;3.80;99.90;;;;;;12493246;28;20053;-36
2024/02/25 00:31:11;;;;;;;23.33;22.13;;;3.90;99.90;;;;;;12516057;28;20163;-36
2024/02/25 00:37:13;;;;;;;23.75;22.45;;;3.90;99.90;;;;;;12521247;28;20183;-36
2024/02/25 00:43:15;;;;;;;22.80;21.50;;;4.00;99.90;;;;;;12506937;28;20041;-36
2024/02/25 00:49:17;;;;;;;23.30;22.13;;;4.10;99.90;;;;;;12488421;28;20092;-35
2024/02/25 00:55:20;;;;;;;22.55;21.35;;;4.10;99.90;;;;;;12495159;28;20431;-36
2024/02/25 01:01:21;;;;;;;21.63;20.52;;;4.10;99.90;;;;;;12511253;28;20052;-35
2024/02/25 01:07:23;;;;;;;22.02;20.55;;;4.00;99.90;;;;;;12501486;28;20056;-36
2024/02/25 01:13:25;;;;;;;20.35;19.27;;;4.00;99.90;;;;;;12511285;28;20056;-36
2024/02/25 01:19:27;;;;;;;19.00;17.90;;;4.00;99.90;;;;;;12500294;28;20068;-35
2024/02/25 01:25:29;;;;;;;19.02;18.02;;;4.00;99.90;;;;;;12487633;28;20080;-36
2024/02/25 01:31:30;;;;;;;18.58;17.58;;;4.10;99.90;;;;;;12489150;28;20560;-36
2024/02/25 01:37:32;;;;;;;18.38;17.48;;;4.20;99.90;;;;;;12484229;28;20091;-36
2024/02/25 01:43:37;;;;;;;18.65;17.55;;;4.20;99.90;;;;;;12474158;28;20049;-35
2024/02/25 01:49:39;;;;;;;19.30;18.20;;;4.20;99.90;;;;;;12511034;28;20059;-35
2024/02/25 01:55:45;;;;;;;19.40;18.10;;;4.30;99.90;;;;;;12516436;28;20052;-36
2024/02/25 02:01:47;;;;;;;21.45;20.25;;;4.40;99.90;;;;;;12492442;28;20099;-36
2024/02/25 02:07:49;;;;;;;21.75;20.48;;;4.40;99.90;;;;;;12493589;28;20044;-36
2024/02/25 02:13:52;;;;;;;23.25;22.00;;;4.50;99.90;;;;;;12489169;28;20264;-36
2024/02/25 02:19:54;;;;;;;23.85;22.65;;;4.20;99.90;;;;;;12483834;28;20038;-36
2024/02/25 02:25:56;;;;;;;21.63;20.42;;;3.90;99.90;;;;;;12510736;28;20421;-36
2024/02/25 02:31:59;;;;;;;20.33;19.13;;;3.90;99.90;;;;;;12512446;28;20054;-36
2024/02/25 02:38:02;;;;;;;21.57;20.37;;;3.90;99.90;;;;;;12494764;28;20505;-37
2024/02/25 02:44:05;;;;;;;22.17;20.88;;;3.90;99.90;;;;;;12510745;28;20052;-36
2024/02/25 02:50:08;;;;;;;20.35;19.35;;;4.00;99.90;;;;;;12498951;28;20049;-35
2024/02/25 02:56:09;;;;;;;20.13;18.95;;;4.00;99.90;;;;;;12513293;28;20080;-35
2024/02/25 03:02:11;;;;;;;22.08;20.90;;;4.00;99.90;;;;;;12497115;28;20084;-36
2024/02/25 03:08:13;;;;;;;20.88;19.77;;;4.00;99.90;;;;;;12504394;28;20667;-36
2024/02/25 03:14:16;;;;;;;19.33;18.33;;;4.00;99.90;;;;;;12488002;28;20606;-35
2024/02/25 03:20:19;;;;;;;20.65;19.20;;;4.20;99.90;;;;;;12478462;28;20136;-36
2024/02/25 03:26:21;;;;;;;21.35;20.15;;;4.30;99.90;;;;;;12489377;28;20071;-36
2024/02/25 03:32:23;;;;;;;23.30;22.00;;;4.20;99.90;;;;;;12458427;28;20563;-36
2024/02/25 03:38:25;;;;;;;21.08;19.88;;;4.20;99.90;;;;;;12502010;28;20049;-38
2024/02/25 03:44:27;;;;;;;20.05;18.88;;;4.30;99.90;;;;;;12496883;28;20198;-36
2024/02/25 03:50:29;;;;;;;19.75;18.65;;;4.40;99.90;;;;;;12522790;28;20049;-36
2024/02/25 03:56:32;;;;;;;21.25;20.15;;;4.90;99.90;;;;;;12498287;28;20089;-36
2024/02/25 04:02:36;;;;;;;21.38;20.27;;;5.10;99.90;;;;;;12501898;28;20077;-36
2024/02/25 04:08:38;;;;;;;23.25;21.95;;;5.10;99.90;;;;;;12498525;28;20788;-36
2024/02/25 04:14:40;;;;;;;22.77;21.58;;;5.10;99.90;;;;;;12492636;28;20084;-36
2024/02/25 04:20:42;;;;;;;22.98;21.77;;;5.20;99.90;;;;;;12495352;28;20072;-36
2024/02/25 04:26:48;;;;;;;23.23;22.02;;;5.20;99.90;;;;;;12513495;28;20045;-36
2024/02/25 04:32:50;;;;;;;21.67;20.58;;;5.20;99.90;;;;;;12469249;28;1085398;-36
2024/02/25 04:38:53;;;;;;;23.42;22.00;;;5.10;99.90;;;;;;12500798;28;20045;-36
2024/02/25 04:44:55;;;;;;;24.70;23.40;;;5.10;99.90;;;;;;12510725;28;20460;-37
2024/02/25 04:50:56;;;;;;;22.65;21.40;;;5.10;99.90;;;;;;12477114;28;20091;-36
2024/02/25 04:56:58;;;;;;;22.63;21.42;;;4.90;99.90;;;;;;12491476;28;21378;-36
2024/02/25 05:03:01;;;;;;;23.10;21.90;;;4.80;99.90;;;;;;12501141;28;20136;-36
2024/02/25 05:09:03;;;;;;;20.85;19.73;;;4.80;99.90;;;;;;12505413;28;20049;-36
2024/02/25 05:15:06;;;;;;;19.30;17.83;;;4.90;99.90;;;;;;12539413;28;20469;-36
2024/02/25 05:21:07;;;;;;;19.40;18.40;;;4.90;99.90;;;;;;12480372;28;20816;-36
2024/02/25 05:27:10;;;;;;;19.15;18.05;;;4.90;99.90;;;;;;12491950;28;20513;-35
2024/02/25 05:33:11;;;;;;;19.02;18.02;;;4.80;99.90;;;;;;12463167;28;20057;-36
2024/02/25 05:39:13;;;;;;;22.20;20.90;;;4.80;99.90;;;;;;12489415;28;20056;-36
2024/02/25 05:45:15;;;;;;;22.15;20.88;;;4.80;99.90;;;;;;12463369;28;20513;-37
2024/02/25 05:51:18;;;;;;;20.77;19.65;;;4.90;99.90;;;;;;12507422;28;20052;-35
2024/02/25 05:57:20;;;;;;;23.27;21.88;;;4.90;99.90;;;;;;12489555;28;20057;-36
2024/02/25 06:03:22;;;;;;;21.75;20.65;;;4.90;99.90;;;;;;12504809;28;20091;-36
2024/02/25 06:09:24;;;;;;;21.77;20.58;;;4.90;99.90;;;;;;12502455;28;20413;-36
2024/02/25 06:15:26;;;;;;;23.52;22.23;;;4.90;99.90;;;;;;12483216;28;20084;-36
2024/02/25 06:21:28;;;;;;;21.33;20.13;;;4.90;99.90;;;;;;12510958;28;20198;-36
2024/02/25 06:27:30;;;;;;;22.55;21.40;;;4.80;99.90;;;;;;12492748;28;20229;-36
2024/02/25 06:33:32;;;;;;;21.10;20.00;;;4.80;99.90;;;;;;12493624;28;20088;-36
2024/02/25 06:39:34;;;;;;;23.13;21.92;;;4.80;99.90;;;;;;12490797;28;20052;-36
2024/02/25 06:45:36;;;;;;;23.02;21.73;;;4.70;99.90;;;;;;12502919;28;20083;-36
2024/02/25 06:51:38;;;;;;;22.33;21.13;;;4.70;99.90;;;;;;12455439;28;20060;-36
2024/02/25 06:57:40;;;;;;;23.08;21.88;;;4.70;99.90;;;;;;12480633;28;20049;-36
2024/02/25 07:03:45;;;;;;;22.25;21.05;;;4.70;99.90;;;;;;12489186;28;20460;-36
2024/02/25 07:09:48;;;;;;;22.48;21.27;;;4.70;99.90;;;;;;12507374;28;20053;-36
2024/02/25 07:15:50;;;;;;;20.88;19.77;;;4.80;99.90;;;;;;12481516;28;20505;-36
2024/02/25 07:21:51;;;;;;;21.08;19.98;;;4.90;99.90;;;;;;12465850;28;20073;-37
2024/02/25 07:27:53;;;;;;;22.33;21.17;;;5.10;99.90;;;;;;12477483;28;20060;-35
2024/02/25 07:33:55;;;;;;;24.35;23.08;;;5.10;99.90;;;;;;12470171;28;20503;-36
2024/02/25 07:39:57;;;;;;;23.77;22.50;;;5.10;99.90;;;;;;12472595;28;20048;-36
2024/02/25 07:45:59;;;;;;;26.25;24.95;;;5.20;99.90;;;;;;12487908;28;20044;-37
2024/02/25 07:52:01;;;;;;;26.38;25.05;;;5.30;99.90;;;;;;12492893;28;20068;-37
2024/02/25 07:58:06;;;;;;;23.33;22.13;;;5.10;99.90;;;;;;12511198;28;20562;-36
2024/02/25 08:04:08;;;;;;;23.45;22.25;;;5.00;99.90;;;;;;12487464;28;20045;-35
2024/02/25 08:10:11;;;;;;;24.48;22.98;;;5.10;99.90;;;;;;12470024;28;20060;-36
2024/02/25 08:16:13;;;;;;;28.48;26.92;;;5.20;99.90;;;;;;12504749;28;20049;-36
2024/02/25 08:22:15;;;;;;;26.63;25.25;;;5.30;99.90;;;;;;12521428;28;20048;-36
2024/02/25 08:28:17;;;;;;;24.92;23.63;;;5.40;99.90;;;;;;12508904;28;20194;-36
2024/02/25 08:34:20;;;;;;;29.17;27.70;;;5.50;99.90;;;;;;12506836;28;20049;-36
2024/02/25 08:40:25;;;;;;;33.05;31.45;;;5.70;99.90;;;;;;12513236;28;20084;-36
2024/02/25 08:46:27;;;;;;;30.70;29.10;;;5.80;99.90;;;;;;12517475;28;20160;-36
2024/02/25 08:52:28;;;;;;;30.05;28.55;;;6.00;99.90;;;;;;12513883;28;20049;-37
2024/02/25 08:58:30;;;;;;;30.75;29.15;;;6.10;99.90;;;;;;12502828;28;20131;-36
2024/02/25 09:04:32;;;;;;;34.20;32.45;;;6.10;99.90;;;;;;12512606;28;20083;-36
2024/02/25 09:10:36;;;;;;;32.97;31.27;;;6.60;99.90;;;;;;12501485;28;21149;-36
2024/02/25 09:16:38;;;;;;;39.33;37.42;;;7.10;99.90;;;;;;12513470;28;20044;-36
2024/02/25 09:22:40;;;;;;;37.97;36.08;;;7.20;99.90;;;;;;12483787;28;20747;-36
2024/02/25 09:28:43;;;;;;;38.40;36.50;;;7.10;99.90;;;;;;12492736;28;20136;-36
2024/02/25 09:34:44;;;;;;;42.20;40.10;;;7.50;99.90;;;;;;12466872;28;20187;-37
2024/02/25 09:40:46;;;;;;;43.75;41.65;;;7.60;99.90;;;;;;12484115;28;20045;-36
2024/02/25 09:46:54;;;;;;;41.65;39.55;;;7.40;99.90;;;;;;12474640;28;20140;-37
2024/02/25 09:52:56;;;;;;;42.33;40.33;;;7.30;99.90;;;;;;12507070;28;20080;-36
2024/02/25 09:58:58;;;;;;;37.70;35.88;;;7.30;99.90;;;;;;12498961;28;20144;-37
2024/02/25 10:05:02;;;;;;;38.85;36.85;;;7.20;99.90;;;;;;12501443;28;20080;-36
2024/02/25 10:11:09;;;;;;;39.45;37.55;;;7.30;99.90;;;;;;12489805;28;20394;-37
2024/02/25 10:17:12;;;;;;;39.15;37.15;;;7.50;99.90;;;;;;12484324;28;21976;-37
2024/02/25 10:23:15;;;;;;;36.95;35.05;;;7.50;99.90;;;;;;12506286;28;20076;-36
2024/02/25 10:29:17;;;;;;;33.53;31.83;;;7.70;99.90;;;;;;12513728;28;20191;-36
2024/02/25 10:35:18;;;;;;;36.28;34.40;;;7.90;99.90;;;;;;12519223;28;20087;-36
2024/02/25 10:41:21;;;;;;;35.10;33.30;;;7.90;99.90;;;;;;12517771;28;20116;-37
2024/02/25 10:47:23;;;;;;;29.77;28.35;;;7.80;99.90;;;;;;12511531;28;20132;-36
2024/02/25 10:53:30;;;;;;;32.55;30.85;;;8.00;80.70;;;;;;12499224;28;20045;-36
2024/02/25 10:59:31;;;;;;;33.90;32.28;;;8.00;74.30;;;;;;12512039;28;20045;-36
2024/02/25 11:05:33;;;;;;;33.47;31.85;;;7.90;99.90;;;;;;12494732;28;20057;-36
2024/02/25 11:11:36;;;;;;;30.98;29.48;;;8.10;99.90;;;;;;12488605;28;20057;-36
2024/02/25 11:17:43;;;;;;;31.05;29.55;;;8.30;89.80;;;;;;12473771;28;20060;-36
2024/02/25 11:23:47;;;;;;;30.42;28.92;;;8.50;62.70;;;;;;12490671;28;20049;-36
2024/02/25 11:30:15;;;;;;;33.58;31.67;;;8.40;51.00;;;;;;12485592;28;20065;-37
2024/02/25 11:36:20;;;;;;;29.42;27.95;;;8.20;99.90;;;;;;12454290;28;20041;-35
2024/02/25 11:42:22;;;;;;;29.70;28.15;;;8.20;99.90;;;;;;12479535;28;20124;-36
2024/02/25 11:48:24;;;;;;;30.00;28.45;;;8.40;99.90;;;;;;12510339;28;20096;-36
2024/02/25 11:54:29;;;;;;;24.20;23.00;;;8.40;77.10;;;;;;12540694;28;20549;-36
2024/02/25 12:00:32;;;;;;;;;;;8.60;46.20;;;;;;12493535;28;20048;-36
2024/02/25 12:06:35;;;;;;;30.23;28.73;;;8.40;12.70;;;;;;12510985;28;19927;-36
2024/02/25 12:12:38;;;;;;;28.42;27.02;;;8.20;39.50;;;;;;12511786;28;20055;-37
2024/02/25 12:18:40;;;;;;;27.17;25.75;;;8.10;99.90;;;;;;12497109;28;20140;-37
2024/02/25 12:24:42;;;;;;;27.35;25.95;;;8.30;99.90;;;;;;12551000;28;20049;-37
2024/02/25 12:30:45;;;;;;;24.45;23.25;;;8.50;98.00;;;;;;12504293;28;20081;-37
2024/02/25 12:36:47;;;;;;;25.27;23.98;;;8.60;29.10;;;;;;12518815;28;20056;-36
2024/02/25 12:42:52;;;;;;;26.40;25.10;;;8.80;1.00;;;;;;12506259;28;20056;-36
2024/02/25 12:48:55;;;;;;;24.00;22.80;;;8.80;1.00;;;;;;12500256;28;20057;-36
2024/02/25 12:54:57;;;;;;;21.25;20.15;;;8.60;1.00;;;;;;12485779;28;20498;-35
2024/02/25 13:00:59;;;;;;;20.77;19.77;;;8.90;1.00;;;;;;12480267;28;20482;-36
2024/02/25 13:07:02;;;;;;;22.27;21.17;;;9.20;1.00;;;;;;12501100;28;20050;-36
2024/02/25 13:13:05;;;;;;;21.98;20.77;;;9.10;1.00;;;;;;12511883;28;20045;-37
2024/02/25 13:19:09;;;;;;;24.70;23.50;;;8.80;1.00;;;;;;12505475;28;20051;-37
2024/02/25 13:25:15;;;;;;;24.67;23.42;;;8.70;1.00;;;;;;12470307;28;20050;-36
2024/02/25 13:31:17;;;;;;;24.40;23.17;;;8.50;3.40;;;;;;12526964;28;20061;-37
2024/02/25 13:37:19;;;;;;;23.13;21.92;;;8.50;48.70;;;;;;12524915;28;20054;-37
2024/02/25 13:43:21;;;;;;;19.85;18.75;;;8.70;12.10;;;;;;12504352;28;20045;-36
2024/02/25 13:49:23;;;;;;;23.52;22.38;;;8.70;94.90;;;;;;12515613;28;20085;-37
2024/02/25 13:55:26;;;;;;;23.90;22.70;;;8.70;26.80;;;;;;12494134;28;20060;-36
2024/02/25 14:01:27;;;;;;;20.83;19.83;;;8.80;99.90;;;;;;12510203;28;20052;-35
2024/02/25 14:07:30;;;;;;;17.33;16.33;;;8.70;99.90;;;;;;12503007;28;20136;-37
2024/02/25 14:13:31;;;;;;;18.42;16.75;;;8.70;99.90;;;;;;12511757;28;20135;-36
2024/02/25 14:19:33;;;;;;;17.35;16.45;;;8.60;99.90;;;;;;12513596;28;20077;-36
2024/02/25 14:25:35;;;;;;;16.90;15.90;;;8.50;99.90;;;;;;12528840;28;20048;-37
2024/02/25 14:31:38;;;;;;;18.60;17.52;;;8.60;99.90;;;;;;12493963;28;20119;-36
2024/02/25 14:37:40;;;;;;;17.58;16.67;;;8.70;99.90;;;;;;12524962;28;20735;-37
2024/02/25 14:43:43;;;;;;;14.80;14.02;;;8.90;99.90;;;;;;12488932;28;20049;-36
2024/02/25 14:49:45;;;;;;;18.75;17.85;;;8.80;99.90;;;;;;12492653;28;20049;-36
2024/02/25 14:55:47;;;;;;;15.20;14.30;;;8.70;99.90;;;;;;12533437;28;20596;-36
2024/02/25 15:01:48;;;;;;;18.48;17.48;;;8.50;99.90;;;;;;12514380;28;20060;-36
2024/02/25 15:07:51;;;;;;;18.38;17.45;;;8.50;99.90;;;;;;12507593;28;20107;-37
2024/02/25 15:13:53;;;;;;;18.10;17.20;;;8.40;99.90;;;;;;12527710;28;20048;-37
2024/02/25 15:19:55;;;;;;;17.70;16.80;;;8.40;99.90;;;;;;12512203;28;20064;-36
2024/02/25 15:25:57;;;;;;;16.02;15.23;;;8.30;99.90;;;;;;12515166;28;20057;-36
2024/02/25 15:31:58;;;;;;;17.45;16.55;;;8.40;99.90;;;;;;12509804;28;20077;-37
2024/02/25 15:38:00;;;;;;;18.60;17.65;;;8.40;99.90;;;;;;12520089;28;20045;-36
2024/02/25 15:44:03;;;;;;;17.65;16.65;;;8.40;99.90;;;;;;12514273;28;20527;-36
2024/02/25 15:50:06;;;;;;;17.90;17.00;;;8.30;99.90;;;;;;12513305;28;20057;-37
2024/02/25 15:56:08;;;;;;;17.50;16.52;;;8.30;99.90;;;;;;12535935;28;20084;-36
2024/02/25 16:02:10;;;;;;;16.67;15.88;;;8.20;99.90;;;;;;12509622;28;20087;-36
2024/02/25 16:08:14;;;;;;;16.95;16.05;;;8.10;99.90;;;;;;12509249;28;20049;-36
2024/02/25 16:14:16;;;;;;;17.58;16.67;;;8.10;99.90;;;;;;12522368;28;20182;-36
2024/02/25 16:20:18;;;;;;;17.48;16.58;;;8.00;99.90;;;;;;12499427;28;20041;-36
2024/02/25 16:26:22;;;;;;;15.93;14.95;;;8.00;99.90;;;;;;12524772;28;20102;-37
2024/02/25 16:32:24;;;;;;;14.82;14.02;;;7.90;99.90;;;;;;12517141;28;20437;-36
2024/02/25 16:38:26;;;;;;;15.82;14.95;;;7.80;99.90;;;;;;12510364;28;20152;-37
2024/02/25 16:44:28;;;;;;;15.75;14.95;;;7.70;99.90;;;;;;12502553;28;20485;-37
2024/02/25 16:50:30;;;;;;;17.58;16.67;;;7.70;99.90;;;;;;12513405;28;20433;-36
2024/02/25 16:56:31;;;;;;;17.20;16.15;;;7.60;99.90;;;;;;12507317;28;20517;-36
2024/02/25 17:02:36;;;;;;;17.98;16.98;;;7.40;99.90;;;;;;12517597;28;20156;-36
2024/02/25 17:08:38;;;;;;;17.35;16.35;;;7.40;99.90;;;;;;12512685;28;20045;-36
2024/02/25 17:14:40;;;;;;;17.75;16.75;;;7.30;99.90;;;;;;12521636;28;20136;-36
2024/02/25 17:20:42;;;;;;;13.95;13.15;;;7.10;99.90;;;;;;12500962;28;20084;-36
2024/02/25 17:26:44;;;;;;;13.93;13.13;;;6.90;99.90;;;;;;12513064;28;20049;-36
2024/02/25 17:32:46;;;;;;;13.07;12.25;;;6.70;99.90;;;;;;12515669;28;20056;-36
2024/02/25 17:38:48;;;;;;;11.48;10.85;;;6.50;99.90;;;;;;12502192;28;20065;-36
2024/02/25 17:44:50;;;;;;;11.07;10.38;;;6.40;99.90;;;;;;12480396;28;20049;-36
2024/02/25 17:50:52;;;;;;;11.57;10.88;;;6.30;99.90;;;;;;12491623;28;20049;-37
2024/02/25 17:56:54;;;;;;;11.23;10.63;;;6.10;99.90;;;;;;12523753;28;20056;-36
2024/02/25 18:02:57;;;;;;;10.10;9.40;;;6.10;99.90;;;;;;12503413;28;20064;-36
2024/02/25 18:08:59;;;;;;;10.02;9.25;;;5.90;99.90;;;;;;12500760;28;20050;-36
2024/02/25 18:15:01;;;;;;;9.75;9.15;;;5.90;99.90;;;;;;12525336;28;20056;-36
2024/02/25 18:21:04;;;;;;;9.52;8.93;;;5.90;99.90;;;;;;12528826;28;20143;-36
2024/02/25 18:27:05;;;;;;;9.63;9.00;;;5.90;99.90;;;;;;12516489;28;20561;-36
2024/02/25 18:33:07;;;;;;;9.68;9.10;;;5.90;99.90;;;;;;12508682;28;20068;-36
2024/02/25 18:39:09;;;;;;;9.63;9.02;;;5.80;99.90;;;;;;12481766;28;20042;-36
2024/02/25 18:45:12;;;;;;;9.80;9.05;;;5.90;99.90;;;;;;12495937;28;20060;-36
2024/02/25 18:51:14;;;;;;;11.15;10.35;;;5.80;99.90;;;;;;12508183;28;20049;-36
2024/02/25 18:57:15;;;;;;;10.75;10.15;;;5.80;99.90;;;;;;12481468;28;20434;-36
2024/02/25 19:03:18;;;;;;;12.23;11.52;;;5.70;99.90;;;;;;12522930;28;20049;-36
2024/02/25 19:09:20;;;;;;;13.50;12.60;;;5.50;99.90;;;;;;12522363;28;20079;-36
2024/02/25 19:15:26;;;;;;;12.48;11.68;;;5.30;99.90;;;;;;12522646;28;20402;-37
2024/02/25 19:21:28;;;;;;;13.60;12.38;;;5.10;99.90;;;;;;12518119;28;20139;-35
2024/02/25 19:27:30;;;;;;;10.77;9.98;;;5.00;99.90;;;;;;12497971;28;20061;-37
2024/02/25 19:33:32;;;;;;;11.05;10.35;;;4.80;99.90;;;;;;12506813;28;20060;-36
2024/02/25 19:39:34;;;;;;;11.20;10.40;;;4.70;99.90;;;;;;12523779;28;20056;-37
2024/02/25 19:45:36;;;;;;;11.70;10.93;;;4.60;99.90;;;;;;12490692;28;20453;-35
2024/02/25 19:51:38;;;;;;;11.32;10.52;;;4.50;99.90;;;;;;12507130;28;20073;-36
2024/02/25 19:57:40;;;;;;;12.45;11.65;;;4.40;99.90;;;;;;12495880;28;20136;-36
2024/02/25 20:03:41;;;;;;;10.43;9.77;;;4.40;99.90;;;;;;12529937;28;20544;-35
2024/02/25 20:09:44;;;;;;;9.90;9.25;;;4.30;99.90;;;;;;12514726;28;20077;-35
2024/02/25 20:15:46;;;;;;;10.30;9.52;;;4.40;99.90;;;;;;12517353;28;20057;-37
2024/02/25 20:21:50;;;;;;;11.05;10.25;;;4.30;99.90;;;;;;12506275;28;20064;-36
2024/02/25 20:27:52;;;;;;;9.73;9.13;;;4.20;99.90;;;;;;12522252;28;20049;-36
2024/02/25 20:33:54;;;;;;;10.45;9.75;;;4.30;99.90;;;;;;12492417;28;20478;-38
2024/02/25 20:39:56;;;;;;;9.55;8.95;;;4.30;99.90;;;;;;12550266;28;20496;-36
2024/02/25 20:45:58;;;;;;;10.75;10.15;;;4.30;99.90;;;;;;12539942;28;20469;-36
2024/02/25 20:52:01;;;;;;;12.10;11.20;;;4.30;99.90;;;;;;12512007;28;20465;-36
2024/02/25 20:58:05;;;;;;;11.70;11.00;;;4.20;99.90;;;;;;12500976;28;20478;-36
2024/02/25 21:04:07;;;;;;;11.00;10.30;;;4.10;99.90;;;;;;12511662;28;20056;-37
2024/02/25 21:10:10;;;;;;;11.35;10.55;;;3.90;99.90;;;;;;12510095;28;20489;-36
2024/02/25 21:16:12;;;;;;;10.93;10.23;;;3.90;99.90;;;;;;12521048;28;20131;-35
2024/02/25 21:22:14;;;;;;;11.65;10.85;;;3.90;99.90;;;;;;12511549;28;20391;-36
2024/02/25 21:28:16;;;;;;;11.00;10.30;;;3.80;99.90;;;;;;12518698;28;20675;-37
2024/02/25 21:34:19;;;;;;;10.65;9.95;;;3.70;99.90;;;;;;12497248;28;20139;-36
2024/02/25 21:40:21;;;;;;;10.30;9.60;;;3.90;99.90;;;;;;12499180;28;20084;-36
2024/02/25 21:46:23;;;;;;;10.32;9.63;;;3.90;99.90;;;;;;12512375;28;20056;-36
2024/02/25 21:52:26;;;;;;;10.23;9.52;;;3.90;99.90;;;;;;12511961;28;20053;-36
2024/02/25 21:58:29;;;;;;;11.57;10.77;;;3.80;99.90;;;;;;12504031;28;20045;-37
2024/02/25 22:04:31;;;;;;;11.90;10.95;;;3.90;99.90;;;;;;12541209;28;20127;-36
2024/02/25 22:10:33;;;;;;;9.82;9.23;;;3.80;99.90;;;;;;12504543;28;20045;-36
2024/02/25 22:16:35;;;;;;;11.73;11.05;;;3.90;99.90;;;;;;12512080;28;20423;-36
2024/02/25 22:22:37;;;;;;;12.55;11.85;;;3.90;99.90;;;;;;12478579;28;20137;-36
2024/02/25 22:28:39;;;;;;;14.05;13.25;;;3.80;99.90;;;;;;12510476;28;20475;-36
2024/02/25 22:34:42;;;;;;;14.57;13.68;;;3.60;99.90;;;;;;12509626;28;20076;-36
2024/02/25 22:40:45;;;;;;;14.93;13.93;;;3.50;99.90;;;;;;12520634;28;20076;-36
2024/02/25 22:46:46;;;;;;;15.00;14.10;;;3.50;99.90;;;;;;12521996;28;20524;-36
2024/02/25 22:52:49;;;;;;;14.75;13.85;;;3.40;99.90;;;;;;12524688;28;20122;-36
2024/02/25 22:58:51;;;;;;;14.95;14.05;;;3.40;99.90;;;;;;12516502;28;20179;-36
2024/02/25 23:04:53;;;;;;;15.55;14.63;;;3.40;99.90;;;;;;12495209;28;20563;-36
2024/02/25 23:10:55;;;;;;;16.05;15.15;;;3.30;99.90;;;;;;12518033;28;20060;-36
2024/02/25 23:16:57;;;;;;;16.05;15.05;;;3.50;99.90;;;;;;12488193;28;20099;-36
2024/02/25 23:22:59;;;;;;;14.32;13.43;;;3.40;99.90;;;;;;12517640;28;20080;-35
2024/02/25 23:29:01;;;;;;;16.27;15.32;;;3.30;99.90;;;;;;12505090;28;20049;-37
2024/02/25 23:35:04;;;;;;;17.80;16.63;;;3.20;99.90;;;;;;12503007;28;20508;-36
2024/02/25 23:41:06;;;;;;;16.08;15.10;;;3.10;99.90;;;;;;12492270;28;20052;-37
2024/02/25 23:47:08;;;;;;;16.90;15.77;;;3.00;99.90;;;;;;12503361;28;20081;-36
2024/02/25 23:53:10;;;;;;;16.63;15.65;;;3.00;99.90;;;;;;12521653;28;20045;-36
2024/02/25 23:59:12;;;;;;;16.40;15.25;;;3.00;99.90;;;;;;12503806;28;20140;-35
